Terminal Aerodrome Forecast
Issued by NWS Boise, ID

Current Version | Previous Version | Text Only | Print | Product List | Glossary On
Versions: 1 2 3 4 5 6 7 8 9 10 11 12 13 14 15 16 17 18 19 20 21 22 23 24 25 26 27 28 29 30 31 32
000
FTUS45 KBOI 211120
TAFBNO
TAF
KBNO 211120Z 2112/2212 24007KT P6SM VCSH SCT050 BKN070
     FM211700 23010KT P6SM SCT040
     FM220300 VRB03KT P6SM SCT150
     FM221100 VRB03KT P6SM BKN100=

USA.gov is the U.S. government's official web portal to all federal, state and local government web resources and services.